Time;durP1;ratioP1;P1;durP2;ratioP2;P2;SDS_P1;SDS_P2;PMS_P1;PMS_P2;Temp;Humidity;BMP_temperature;BMP_pressure;BME280_temperature;BME280_humidity;BME280_pressure;Samples;Min_cycle;Max_cycle;Signal;HPM_P1;HPM_P2
2022/12/25 00:00:09;;;;;;;67.68;40.00;;;256.30;2252.80;;;;;;5091147;28;20458;-61
2022/12/25 00:02:35;;;;;;;73.65;44.80;;;256.30;2252.80;;;;;;5091289;28;20032;-59
2022/12/25 00:05:00;;;;;;;59.38;31.00;;;256.40;2252.80;;;;;;5090946;28;20523;-62
2022/12/25 00:07:26;;;;;;;68.30;34.33;;;256.40;2252.80;;;;;;5090849;28;20040;-59
2022/12/25 00:09:52;;;;;;;131.35;65.88;;;256.40;2252.80;;;;;;5090671;28;20036;-61
2022/12/25 00:12:19;;;;;;;65.70;36.65;;;256.50;2252.80;;;;;;5091112;28;20032;-59
2022/12/25 00:14:45;;;;;;;95.47;52.75;;;256.50;2252.80;;;;;;5090939;28;20490;-61
2022/12/25 00:17:11;;;;;;;67.53;38.58;;;256.50;2252.80;;;;;;5091019;28;20099;-59
2022/12/25 00:19:37;;;;;;;25.00;14.73;;;256.50;2252.80;;;;;;5090761;28;20028;-61
2022/12/25 00:22:02;;;;;;;14.98;13.40;;;256.30;2252.80;;;;;;5090903;28;20036;-59
2022/12/25 00:24:28;;;;;;;16.75;10.45;;;256.10;2201.60;;;;;;5090946;28;20077;-59
2022/12/25 00:26:53;;;;;;;13.77;10.65;;;256.00;2252.80;;;;;;5090396;28;20518;-58
2022/12/25 00:29:19;;;;;;;15.50;11.30;;;231.30;2252.80;;;;;;5090773;28;20032;-58
2022/12/25 00:31:45;;;;;;;18.60;10.80;;;231.30;2252.80;;;;;;5090508;28;20073;-61
2022/12/25 00:34:10;;;;;;;13.55;8.55;;;231.30;2252.80;;;;;;5091031;28;20020;-59
2022/12/25 00:36:36;;;;;;;13.95;8.68;;;231.30;2252.80;;;;;;5090580;28;20099;-60
2022/12/25 00:39:02;;;;;;;11.57;7.35;;;231.30;2252.80;;;;;;5090310;28;20047;-59
2022/12/25 00:44:32;;;;;;;;;;;256.10;2252.80;;;;;;5028486;28;20108;-59
2022/12/25 00:46:58;;;;;;;9.98;8.13;;;256.10;2252.80;;;;;;5028222;28;20019;-61
2022/12/25 00:49:24;;;;;;;12.10;7.20;;;256.00;2252.80;;;;;;5027976;28;20033;-59
2022/12/25 00:51:49;;;;;;;10.73;6.18;;;256.00;2252.80;;;;;;5027524;28;20435;-58
2022/12/25 00:54:15;;;;;;;13.93;8.52;;;256.00;2252.80;;;;;;5027819;28;20156;-59
2022/12/25 00:56:41;;;;;;;13.60;6.20;;;256.10;2252.80;;;;;;5028099;28;20033;-59
2022/12/25 00:59:07;;;;;;;8.13;4.63;;;256.10;2252.80;;;;;;5027885;28;20040;-62
2022/12/25 01:01:32;;;;;;;9.50;6.28;;;256.10;2252.80;;;;;;5027890;28;20034;-61
2022/12/25 01:03:58;;;;;;;11.52;6.28;;;256.10;2252.80;;;;;;5028079;28;20423;-61
2022/12/25 01:06:25;;;;;;;9.60;7.15;;;256.10;2252.80;;;;;;5027897;28;20021;-61
2022/12/25 01:11:35;;;;;;;7.57;5.05;;;231.30;2252.80;;;;;;5027802;28;20040;-59
2022/12/25 01:14:01;;;;;;;8.25;5.50;;;231.30;2252.80;;;;;;5027931;28;20021;-59
2022/12/25 01:16:27;;;;;;;7.90;6.45;;;256.30;2252.80;;;;;;5088861;28;20040;-61
2022/12/25 01:18:52;;;;;;;8.15;5.82;;;256.00;2252.80;;;;;;5090077;28;20039;-61
2022/12/25 01:21:20;;;;;;;10.38;7.38;;;256.10;2252.80;;;;;;5090139;28;20032;-61
2022/12/25 01:23:47;;;;;;;29.30;20.88;;;256.20;1996.80;;;;;;5090007;28;20071;-61
2022/12/25 01:26:14;;;;;;;27.65;19.25;;;256.30;2252.80;;;;;;5089920;28;20024;-60
2022/12/25 01:28:40;;;;;;;52.85;37.00;;;256.40;2252.80;;;;;;5090830;28;20032;-65
2022/12/25 01:31:10;;;;;;;69.47;45.63;;;256.30;2252.80;;;;;;5091816;28;20039;-62
2022/12/25 01:33:37;;;;;;;106.15;71.95;;;256.20;2252.80;;;;;;5091675;28;20030;-63
2022/12/25 01:36:04;;;;;;;59.67;38.38;;;256.20;2252.80;;;;;;5091568;28;20032;-63
2022/12/25 01:38:30;;;;;;;89.45;56.72;;;256.20;2252.80;;;;;;5090548;28;20405;-60
2022/12/25 01:40:56;;;;;;;72.50;48.15;;;256.30;2252.80;;;;;;5089557;28;20028;-60
2022/12/25 01:43:26;;;;;;;71.00;45.80;;;256.30;2252.80;;;;;;5089738;28;20055;-59
2022/12/25 01:45:52;;;;;;;90.82;56.97;;;256.30;2252.80;;;;;;5089783;28;20432;-59
2022/12/25 01:48:38;;;;;;;71.15;49.03;;;256.20;2252.80;;;;;;5089837;28;20032;-59
2022/12/25 01:51:21;;;;;;;134.10;90.28;;;256.00;2252.80;;;;;;5089360;28;20051;-58
2022/12/25 01:53:47;;;;;;;101.75;62.85;;;231.30;2252.80;;;;;;5089839;28;20024;-59
2022/12/25 01:56:13;;;;;;;130.88;81.68;;;231.10;2252.80;;;;;;5089721;28;20025;-61
2022/12/25 01:58:39;;;;;;;138.65;86.53;;;231.10;2252.80;;;;;;5090718;28;20042;-60
2022/12/25 02:01:05;;;;;;;171.73;113.45;;;231.00;2252.80;;;;;;5092148;28;20024;-60
2022/12/25 02:03:30;;;;;;;98.07;61.83;;;231.00;2252.80;;;;;;5094312;28;20020;-63
2022/12/25 02:05:56;;;;;;;95.80;60.75;;;231.00;2252.80;;;;;;5096294;28;20039;-59
2022/12/25 02:08:22;;;;;;;22.75;15.00;;;230.90;2252.80;;;;;;5096600;28;20508;-60
2022/12/25 02:10:48;;;;;;;20.98;12.55;;;230.90;2252.80;;;;;;5097429;28;20103;-62
2022/12/25 02:13:17;;;;;;;35.22;23.98;;;230.70;2252.80;;;;;;5097687;28;20020;-65
2022/12/25 02:16:07;;;;;;;29.58;20.20;;;230.70;2252.80;;;;;;5097983;28;20024;-62
2022/12/25 02:18:49;;;;;;;43.90;29.88;;;230.60;2252.80;;;;;;5097366;28;20032;-63
2022/12/25 02:21:34;;;;;;;43.22;30.60;;;230.60;2252.80;;;;;;5097135;28;20027;-59
2022/12/25 02:24:41;;;;;;;14.98;10.50;;;230.60;2252.80;;;;;;5098789;28;20080;-63
2022/12/25 02:27:17;;;;;;;17.85;14.00;;;230.70;2252.80;;;;;;5014253;28;20096;-60
2022/12/25 02:29:52;;;;;;;21.88;16.52;;;230.80;2252.80;;;;;;5015047;28;20034;-64
2022/12/25 02:32:29;;;;;;;24.95;14.70;;;230.80;2252.80;;;;;;5014827;28;20026;-59
2022/12/25 02:35:07;;;;;;;23.42;16.75;;;230.70;2252.80;;;;;;5010787;28;20169;-59
2022/12/25 02:37:40;;;;;;;43.20;27.88;;;230.60;2252.80;;;;;;5010706;28;20565;-59
2022/12/25 02:40:11;;;;;;;62.83;39.42;;;230.60;2252.80;;;;;;5010705;28;20084;-58
2022/12/25 03:08:10;;;;;;;14.77;10.23;;;205.30;2252.80;;;;;;5092023;28;20493;-58
2022/12/25 03:13:30;;;;;;;14.18;9.45;;;205.20;2252.80;;;;;;5092284;28;20492;-59
2022/12/25 03:18:40;;;;;;;7.10;4.00;;;205.20;2252.80;;;;;;5092492;28;20039;-59
2022/12/25 03:26:56;;;;;;;4.57;3.03;;;205.20;2252.80;;;;;;5075428;28;20028;-60
2022/12/25 03:32:36;;;;;;;7.50;4.75;;;205.20;2252.80;;;;;;5091823;28;20081;-59
2022/12/25 03:35:24;;;;;;;5.35;2.72;;;205.30;2022.40;;;;;;5091714;28;20101;-61
2022/12/25 04:36:59;;;;;;;7.45;5.03;;;179.90;2252.80;;;;;;5048435;28;20103;-59
2022/12/25 04:39:25;;;;;;;11.15;6.80;;;179.80;2252.80;;;;;;5047861;28;20438;-59
2022/12/25 04:41:51;;;;;;;8.82;5.57;;;179.80;1945.60;;;;;;5048150;28;20091;-58
2022/12/25 04:44:16;;;;;;;20.25;12.73;;;179.90;2252.80;;;;;;5048119;28;20052;-59
2022/12/25 04:46:42;;;;;;;11.10;7.53;;;179.90;2252.80;;;;;;5048085;28;20037;-61
2022/12/25 04:49:08;;;;;;;19.63;11.73;;;180.00;2252.80;;;;;;5048420;28;20037;-59
2022/12/25 04:51:35;;;;;;;19.35;12.43;;;180.00;2252.80;;;;;;5047706;28;20032;-59
2022/12/25 04:54:00;;;;;;;21.45;12.07;;;180.00;2252.80;;;;;;5047937;28;20054;-59
2022/12/25 04:56:26;;;;;;;13.00;8.23;;;180.00;2252.80;;;;;;5047862;28;20032;-59
2022/12/25 04:58:52;;;;;;;24.30;13.27;;;180.00;2252.80;;;;;;5054377;28;20055;-59
2022/12/25 05:01:17;;;;;;;30.08;18.17;;;180.10;2252.80;;;;;;5090419;28;20024;-59
2022/12/25 05:03:43;;;;;;;14.18;9.05;;;180.10;2252.80;;;;;;5090291;28;20036;-60
2022/12/25 05:06:09;;;;;;;15.07;6.47;;;180.10;2252.80;;;;;;5090194;28;20054;-62
2022/12/25 05:08:35;;;;;;;11.68;6.50;;;180.00;2252.80;;;;;;5090008;28;20039;-59
2022/12/25 05:11:10;;;;;;;19.60;9.55;;;180.00;2252.80;;;;;;5089850;28;20542;-60
2022/12/25 05:13:36;;;;;;;14.52;10.25;;;180.00;2252.80;;;;;;5090133;28;20024;-59
2022/12/25 05:16:07;;;;;;;13.43;8.32;;;180.00;2252.80;;;;;;5090240;28;20028;-60
2022/12/25 05:18:33;;;;;;;11.13;5.50;;;179.90;2252.80;;;;;;5090510;28;20028;-60
2022/12/25 05:20:59;;;;;;;6.35;4.68;;;180.00;2252.80;;;;;;5090228;28;20363;-59
2022/12/25 05:23:25;;;;;;;7.07;4.55;;;179.90;2252.80;;;;;;5089899;28;20030;-59
2022/12/25 05:25:51;;;;;;;7.75;4.30;;;179.70;2252.80;;;;;;5090079;28;20024;-59
2022/12/25 05:28:16;;;;;;;10.25;5.50;;;179.70;2252.80;;;;;;5089648;28;20040;-59
2022/12/25 05:30:42;;;;;;;14.98;9.73;;;179.70;2252.80;;;;;;5090001;28;20021;-59
2022/12/25 05:33:08;;;;;;;16.88;9.27;;;179.70;2252.80;;;;;;5090101;28;20474;-59
2022/12/25 05:35:36;;;;;;;11.30;7.05;;;179.70;2252.80;;;;;;5089738;28;20047;-59
2022/12/25 05:38:02;;;;;;;8.88;5.80;;;179.70;2252.80;;;;;;5091257;28;20045;-58
2022/12/25 05:40:28;;;;;;;12.35;5.22;;;179.70;2252.80;;;;;;5093786;28;20024;-59
2022/12/25 05:42:54;;;;;;;9.32;8.38;;;179.60;2252.80;;;;;;5093445;28;20520;-59
2022/12/25 05:45:19;;;;;;;9.10;5.60;;;179.60;2252.80;;;;;;5093897;28;20051;-59
2022/12/25 05:47:45;;;;;;;12.88;5.90;;;179.50;2252.80;;;;;;5093590;28;20046;-59
2022/12/25 05:50:11;;;;;;;10.10;5.80;;;179.50;2252.80;;;;;;5093800;28;20032;-60
2022/12/25 05:52:36;;;;;;;13.20;9.07;;;179.50;2252.80;;;;;;5093419;28;20028;-59
2022/12/25 05:55:02;;;;;;;8.65;5.90;;;179.60;2252.80;;;;;;5093643;28;20024;-59
2022/12/25 05:57:28;;;;;;;8.10;4.93;;;179.70;2252.80;;;;;;5093592;28;20028;-60
2022/12/25 05:59:54;;;;;;;11.50;6.50;;;179.70;2252.80;;;;;;5093859;28;20133;-60
2022/12/25 06:02:20;;;;;;;12.57;7.82;;;179.60;2252.80;;;;;;5093830;28;20057;-59
2022/12/25 06:04:46;;;;;;;22.70;13.98;;;179.60;2252.80;;;;;;5093389;28;20481;-60
2022/12/25 06:07:12;;;;;;;15.10;9.43;;;179.70;2252.80;;;;;;5093649;28;20156;-61
2022/12/25 06:09:37;;;;;;;16.27;10.25;;;179.80;2252.80;;;;;;5093470;28;20032;-59
2022/12/25 06:12:03;;;;;;;12.05;9.80;;;179.80;2252.80;;;;;;5093148;28;20032;-60
2022/12/25 06:14:29;;;;;;;12.00;6.20;;;179.80;2252.80;;;;;;5093492;28;20040;-59
2022/12/25 06:16:55;;;;;;;10.23;6.47;;;179.90;2252.80;;;;;;5093346;28;20106;-59
2022/12/25 06:19:21;;;;;;;13.30;8.18;;;179.90;2252.80;;;;;;5093438;28;20462;-59
2022/12/25 06:21:47;;;;;;;11.30;8.23;;;179.90;2252.80;;;;;;5093089;28;20473;-61
2022/12/25 06:24:13;;;;;;;170.77;116.93;;;179.90;2252.80;;;;;;5093170;28;20504;-61
2022/12/25 06:26:39;;;;;;;73.93;52.10;;;179.80;2252.80;;;;;;5093158;28;20063;-60
2022/12/25 06:29:04;;;;;;;296.25;176.07;;;179.80;2252.80;;;;;;5092644;28;20390;-60
2022/12/25 06:31:30;;;;;;;162.70;93.55;;;179.80;2252.80;;;;;;5093240;28;20032;-59
2022/12/25 06:33:56;;;;;;;33.85;22.27;;;179.80;2252.80;;;;;;5093078;28;20016;-59
2022/12/25 06:36:24;;;;;;;39.15;30.10;;;179.80;2252.80;;;;;;5092546;28;20016;-61
2022/12/25 06:38:51;;;;;;;37.17;28.90;;;179.90;2252.80;;;;;;5092234;28;20024;-62
2022/12/25 06:41:19;;;;;;;37.55;25.85;;;179.90;2252.80;;;;;;5091605;28;20107;-60
2022/12/25 06:43:50;;;;;;;19.40;17.35;;;179.90;2252.80;;;;;;5092160;28;20016;-61
2022/12/25 06:46:16;;;;;;;15.65;10.30;;;179.80;2252.80;;;;;;5089762;28;20024;-62
2022/12/25 06:48:47;;;;;;;13.25;11.85;;;179.80;2252.80;;;;;;5091850;28;20485;-59
2022/12/25 06:51:18;;;;;;;17.52;11.05;;;179.70;2252.80;;;;;;5088801;28;20412;-60
2022/12/25 06:53:44;;;;;;;16.75;10.95;;;179.70;2252.80;;;;;;5091998;28;20381;-60
2022/12/25 06:56:14;;;;;;;28.60;20.05;;;179.70;2252.80;;;;;;5092207;28;20016;-61
2022/12/25 06:58:52;;;;;;;65.60;44.00;;;179.80;2252.80;;;;;;5092315;28;20034;-60
2022/12/25 07:01:40;;;;;;;46.33;29.75;;;179.80;2252.80;;;;;;5092688;28;20020;-59
2022/12/25 07:04:15;;;;;;;19.60;13.10;;;179.80;2252.80;;;;;;5081604;28;20892;-59
2022/12/25 07:06:41;;;;;;;12.52;8.68;;;179.80;2252.80;;;;;;5092146;28;20430;-63
2022/12/25 07:09:06;;;;;;;26.42;17.05;;;179.90;2252.80;;;;;;5091432;28;20123;-59
2022/12/25 07:11:32;;;;;;;101.85;67.05;;;179.90;2252.80;;;;;;5092070;28;20024;-60
2022/12/25 07:13:58;;;;;;;74.32;47.47;;;179.90;2252.80;;;;;;5092099;28;20067;-59
2022/12/25 07:16:23;;;;;;;31.17;23.45;;;179.90;2252.80;;;;;;5092102;28;20073;-60
2022/12/25 07:18:49;;;;;;;26.45;19.05;;;179.90;2252.80;;;;;;5092252;28;20100;-62
2022/12/25 07:21:18;;;;;;;30.13;19.55;;;180.00;2252.80;;;;;;5091880;28;20050;-59
2022/12/25 07:23:45;;;;;;;33.95;22.83;;;180.10;2252.80;;;;;;5092451;28;20020;-61
2022/12/25 07:26:11;;;;;;;101.90;68.13;;;180.10;2252.80;;;;;;5093422;28;20071;-59
2022/12/25 07:28:38;;;;;;;138.02;82.88;;;180.10;2252.80;;;;;;5092529;28;20035;-59
2022/12/25 07:31:10;;;;;;;70.68;38.53;;;204.80;2252.80;;;;;;5093137;28;20031;-59
2022/12/25 07:33:36;;;;;;;86.22;54.13;;;204.80;2252.80;;;;;;5093240;28;20055;-59
2022/12/25 07:36:04;;;;;;;34.67;20.55;;;204.80;2252.80;;;;;;5092282;28;20032;-59
2022/12/25 07:38:30;;;;;;;17.60;10.43;;;180.10;2252.80;;;;;;5091608;28;20027;-59
2022/12/25 07:40:55;;;;;;;10.68;5.65;;;179.90;2252.80;;;;;;5091466;28;20036;-59
2022/12/25 07:43:21;;;;;;;10.73;7.43;;;179.80;2252.80;;;;;;5090963;28;20044;-61
2022/12/25 07:45:47;;;;;;;10.93;6.88;;;179.70;2252.80;;;;;;5091741;28;20024;-60
2022/12/25 07:48:13;;;;;;;9.27;6.53;;;179.70;2252.80;;;;;;5091323;28;20085;-59
2022/12/25 07:50:38;;;;;;;13.38;7.40;;;179.70;2252.80;;;;;;5091357;28;20021;-61
2022/12/25 07:53:04;;;;;;;13.30;8.70;;;179.70;2252.80;;;;;;5091418;28;20035;-60
2022/12/25 07:55:30;;;;;;;14.65;8.95;;;179.80;2252.80;;;;;;5091521;28;20028;-62
2022/12/25 07:57:55;;;;;;;11.90;8.15;;;180.00;2252.80;;;;;;5091043;28;20032;-60
2022/12/25 08:00:21;;;;;;;11.00;7.38;;;180.10;2252.80;;;;;;5091109;28;20206;-61
2022/12/25 08:02:50;;;;;;;13.05;8.20;;;204.80;2252.80;;;;;;5091331;28;20058;-61
2022/12/25 08:05:15;;;;;;;15.90;10.23;;;204.90;2252.80;;;;;;5091155;28;20099;-61
2022/12/25 08:07:41;;;;;;;14.45;9.88;;;205.00;2252.80;;;;;;5091342;28;20167;-59
2022/12/25 08:10:07;;;;;;;17.05;12.40;;;205.10;2252.80;;;;;;5091098;28;20028;-60
2022/12/25 08:12:33;;;;;;;18.80;14.43;;;205.30;2252.80;;;;;;5091095;28;20036;-59
2022/12/25 08:14:58;;;;;;;23.63;17.05;;;205.30;2252.80;;;;;;5091317;28;20020;-59
2022/12/25 08:17:24;;;;;;;24.00;17.75;;;205.30;2252.80;;;;;;5090841;28;20033;-59
2022/12/25 08:19:50;;;;;;;23.20;14.10;;;205.20;2252.80;;;;;;5090967;28;20060;-59
2022/12/25 08:22:15;;;;;;;25.98;16.60;;;205.20;2252.80;;;;;;5090866;28;20035;-59
2022/12/25 08:24:41;;;;;;;22.45;14.10;;;205.30;2252.80;;;;;;5091053;28;20373;-61
2022/12/25 08:27:07;;;;;;;21.20;15.30;;;230.70;2252.80;;;;;;5090959;28;20031;-63
2022/12/25 08:29:33;;;;;;;34.40;24.65;;;231.30;2252.80;;;;;;5090570;28;20470;-60
2022/12/25 08:31:59;;;;;;;25.88;19.05;;;231.20;2252.80;;;;;;5090034;28;20028;-61
2022/12/25 08:34:25;;;;;;;21.85;15.75;;;231.30;2252.80;;;;;;5090118;28;20032;-59
2022/12/25 08:36:50;;;;;;;23.90;18.52;;;231.30;2252.80;;;;;;5090122;28;20043;-60
2022/12/25 08:39:16;;;;;;;19.45;15.38;;;231.30;2252.80;;;;;;5089915;28;20098;-60
2022/12/25 08:41:42;;;;;;;29.77;24.52;;;256.00;2252.80;;;;;;5090437;28;20052;-60
2022/12/25 08:44:10;;;;;;;30.48;24.95;;;281.90;2278.40;;;;;;5090690;28;20458;-61
2022/12/25 08:46:36;;;;;;;25.42;20.83;;;332.90;2329.60;;;;;;5090365;28;20028;-60
2022/12/25 08:49:01;;;;;;;44.35;36.85;;;359.00;2329.60;;;;;;5090628;28;20469;-61
2022/12/25 08:51:27;;;;;;;45.03;38.33;;;409.60;2355.20;;;;;;5090283;28;20489;-61
2022/12/25 08:53:56;;;;;;;47.13;36.25;;;435.50;2355.20;;;;;;5090039;28;20432;-61
2022/12/25 08:56:22;;;;;;;44.50;39.60;;;436.10;2227.20;;;;;;5090438;28;20030;-62
2022/12/25 08:58:48;;;;;;;36.30;32.50;;;461.20;2176.00;;;;;;5090439;28;20502;-61
2022/12/25 09:01:13;;;;;;;47.78;42.72;;;486.40;2073.60;;;;;;5090323;28;20027;-62
2022/12/25 09:03:40;;;;;;;40.92;36.47;;;486.90;1971.20;;;;;;5090265;28;20064;-68
2022/12/25 09:06:12;;;;;;;30.00;26.75;;;512.20;1920.00;;;;;;5089882;28;20408;-62
2022/12/25 09:08:38;;;;;;;29.48;26.45;;;538.00;1894.40;;;;;;5089984;28;20115;-61
2022/12/25 09:11:06;;;;;;;42.63;38.28;;;538.40;1792.00;;;;;;5089882;28;20111;-71
2022/12/25 09:13:32;;;;;;;41.67;37.30;;;537.60;1843.20;;;;;;5089382;28;20089;-59
2022/12/25 09:15:58;;;;;;;40.85;36.55;;;512.90;1817.60;;;;;;5090162;28;20117;-70
2022/12/25 09:18:24;;;;;;;37.28;33.30;;;512.80;1817.60;;;;;;5090038;28;20028;-70
2022/12/25 09:21:00;;;;;;;48.05;41.45;;;512.90;1817.60;;;;;;5089616;28;20020;-59
2022/12/25 09:23:26;;;;;;;34.58;28.80;;;512.90;1792.00;;;;;;5089880;28;20056;-60
2022/12/25 09:25:54;;;;;;;98.65;68.88;;;486.90;1894.40;;;;;;5089651;28;20539;-58
2022/12/25 09:28:20;;;;;;;58.03;44.47;;;486.50;1945.60;;;;;;5090027;28;20036;-58
2022/12/25 09:30:50;;;;;;;144.75;105.30;;;460.90;2022.40;;;;;;5089834;28;20044;-66
2022/12/25 09:33:15;;;;;;;94.32;67.72;;;435.40;2099.20;;;;;;5089819;28;20553;-68
2022/12/25 09:35:41;;;;;;;45.00;32.65;;;409.80;2227.20;;;;;;5089918;28;20048;-58
2022/12/25 09:38:07;;;;;;;42.53;34.58;;;384.40;2329.60;;;;;;5089873;28;20451;-59
2022/12/25 09:40:34;;;;;;;52.28;39.13;;;359.20;2329.60;;;;;;5089552;28;20032;-59
2022/12/25 09:43:01;;;;;;;63.53;46.63;;;358.70;2329.60;;;;;;5087025;28;20101;-59
2022/12/25 09:45:37;;;;;;;82.80;64.82;;;358.50;2329.60;;;;;;5088327;28;20016;-60
2022/12/25 09:48:03;;;;;;;92.70;72.20;;;333.70;2329.60;;;;;;5088057;28;20127;-67
2022/12/25 09:50:32;;;;;;;130.73;96.00;;;333.50;2329.60;;;;;;5088108;28;20035;-59
2022/12/25 09:53:23;;;;;;;89.22;66.95;;;333.50;2329.60;;;;;;5088115;28;20024;-62
2022/12/25 09:56:05;;;;;;;92.57;65.82;;;333.50;2329.60;;;;;;5087683;28;20494;-69
2022/12/25 09:58:33;;;;;;;70.22;55.15;;;333.40;2329.60;;;;;;5087989;28;20028;-63
2022/12/25 10:01:36;;;;;;;100.05;78.10;;;333.30;2329.60;;;;;;5088056;28;20119;-62
2022/12/25 10:04:09;;;;;;;87.65;62.55;;;333.30;2329.60;;;;;;5088214;28;20470;-64
2022/12/25 10:06:40;;;;;;;90.43;67.07;;;333.10;2329.60;;;;;;5088012;28;20031;-58
2022/12/25 10:09:21;;;;;;;97.45;71.53;;;333.00;2329.60;;;;;;5087330;28;20036;-68
2022/12/25 10:11:54;;;;;;;104.55;76.72;;;333.10;2329.60;;;;;;5087835;28;20048;-68
2022/12/25 10:14:44;;;;;;;;;;;333.10;2329.60;;;;;;5088436;28;20107;-68
2022/12/25 10:17:22;;;;;;;74.22;50.83;;;333.00;2329.60;;;;;;5087763;28;19904;-60
2022/12/25 10:20:07;;;;;;;67.63;49.60;;;332.90;2329.60;;;;;;5087910;28;20016;-59
2022/12/25 10:22:39;;;;;;;73.95;54.83;;;333.00;2329.60;;;;;;5087655;28;20496;-67
2022/12/25 10:25:15;;;;;;;94.87;70.27;;;333.00;2329.60;;;;;;5090354;28;20541;-64
2022/12/25 10:27:41;;;;;;;96.55;71.53;;;333.00;2329.60;;;;;;5091383;28;20078;-67
2022/12/25 10:30:19;;;;;;;115.40;81.43;;;333.00;2329.60;;;;;;5091381;28;20020;-64
2022/12/25 10:32:46;;;;;;;119.93;87.80;;;333.00;2329.60;;;;;;5091349;28;20478;-63
2022/12/25 10:35:14;;;;;;;124.93;91.88;;;333.00;2329.60;;;;;;5091247;28;20699;-63
2022/12/25 10:37:42;;;;;;;109.38;84.95;;;333.10;2329.60;;;;;;5091251;28;20028;-66
2022/12/25 10:40:38;;;;;;;125.65;91.93;;;333.10;2329.60;;;;;;5091032;28;20439;-63
2022/12/25 10:43:12;;;;;;;126.70;89.38;;;333.10;2329.60;;;;;;5090400;28;20067;-62
2022/12/25 10:45:47;;;;;;;;;;;333.00;2329.60;;;;;;5091657;28;20031;-63
2022/12/25 10:48:24;;;;;;;78.25;55.45;;;333.00;2329.60;;;;;;5090896;28;19920;-64
2022/12/25 10:50:50;;;;;;;67.00;47.08;;;333.10;2329.60;;;;;;5091175;28;20020;-66
2022/12/25 10:53:22;;;;;;;66.80;43.03;;;333.20;2329.60;;;;;;5090681;28;20034;-67
2022/12/25 10:56:00;;;;;;;68.33;49.77;;;333.40;2329.60;;;;;;5091168;28;20048;-75
2022/12/25 10:58:27;;;;;;;64.32;44.25;;;333.30;2329.60;;;;;;5090588;28;20328;-63
2022/12/25 11:01:06;;;;;;;56.85;39.42;;;333.20;2329.60;;;;;;5090118;28;20032;-69
2022/12/25 11:03:35;;;;;;;51.65;37.88;;;333.30;2329.60;;;;;;5090130;28;20039;-65
2022/12/25 11:06:02;;;;;;;56.28;39.70;;;333.40;2329.60;;;;;;5088068;28;20020;-63
2022/12/25 11:08:30;;;;;;;48.30;35.20;;;333.40;2329.60;;;;;;5090629;28;20028;-75
2022/12/25 11:10:57;;;;;;;47.95;32.40;;;333.50;2329.60;;;;;;5090577;28;20028;-62
2022/12/25 11:13:26;;;;;;;48.20;36.78;;;333.50;2329.60;;;;;;5089918;28;20081;-75
2022/12/25 11:16:11;;;;;;;55.97;43.20;;;333.50;2329.60;;;;;;5090404;28;20088;-63
2022/12/25 11:18:48;;;;;;;42.95;30.70;;;333.40;2329.60;;;;;;5090675;28;20063;-66
2022/12/25 11:21:20;;;;;;;52.83;37.08;;;333.50;2329.60;;;;;;5089786;28;20038;-74
2022/12/25 11:23:49;;;;;;;47.05;31.77;;;333.50;2329.60;;;;;;5091505;28;20040;-66
2022/12/25 11:26:16;;;;;;;57.03;34.08;;;333.50;2329.60;;;;;;5091332;28;20374;-62
2022/12/25 11:28:44;;;;;;;40.25;29.65;;;333.60;2329.60;;;;;;5090809;28;20036;-61
2022/12/25 11:31:18;;;;;;;27.85;16.90;;;333.60;2329.60;;;;;;5090946;28;20047;-74
2022/12/25 11:34:31;;;;;;;44.83;29.95;;;333.70;2329.60;;;;;;5088662;28;20066;-66
2022/12/25 11:36:59;;;;;;;58.80;38.53;;;333.70;2329.60;;;;;;5025162;28;20035;-70
2022/12/25 11:39:26;;;;;;;90.07;58.75;;;333.70;2329.60;;;;;;5027621;28;20084;-62
2022/12/25 11:42:04;;;;;;;65.97;49.08;;;333.70;2329.60;;;;;;5027560;28;20041;-63
2022/12/25 11:44:44;;;;;;;68.00;48.55;;;333.70;2329.60;;;;;;5027759;28;20057;-63
2022/12/25 11:47:41;;;;;;;70.88;49.95;;;358.40;2329.60;;;;;;5028455;28;20029;-63
2022/12/25 11:50:14;;;;;;;88.28;56.67;;;358.50;2329.60;;;;;;5029159;28;20033;-63
2022/12/25 11:52:43;;;;;;;42.42;29.27;;;358.60;2329.60;;;;;;5029177;28;20029;-63
2022/12/25 11:55:16;;;;;;;47.53;33.35;;;358.60;2329.60;;;;;;5029197;28;20054;-65
2022/12/25 11:57:45;;;;;;;41.35;29.48;;;358.70;2329.60;;;;;;5029273;28;20467;-66
2022/12/25 12:00:14;;;;;;;26.02;17.58;;;358.70;2329.60;;;;;;5029294;28;20041;-65
2022/12/25 12:02:46;;;;;;;44.13;33.05;;;358.60;2329.60;;;;;;5029081;28;20076;-63
2022/12/25 12:05:14;;;;;;;42.17;31.00;;;358.70;2329.60;;;;;;5029302;28;20025;-63
2022/12/25 12:07:55;;;;;;;21.85;15.25;;;358.70;2329.60;;;;;;5029008;28;20642;-63
2022/12/25 12:10:34;;;;;;;36.63;23.63;;;358.60;2329.60;;;;;;5028887;28;20056;-64
2022/12/25 12:13:13;;;;;;;28.48;19.02;;;358.60;2329.60;;;;;;5059113;28;20036;-64
2022/12/25 12:15:42;;;;;;;37.22;28.73;;;358.70;2329.60;;;;;;5091181;28;20059;-63
2022/12/25 12:18:44;;;;;;;47.00;29.35;;;358.70;2329.60;;;;;;5091147;28;20067;-63
2022/12/25 12:21:28;;;;;;;26.85;17.08;;;358.70;2329.60;;;;;;5009271;28;20472;-65
2022/12/25 12:24:12;;;;;;;25.17;13.18;;;358.70;2329.60;;;;;;5008885;28;20369;-67
2022/12/25 12:26:41;;;;;;;25.83;19.00;;;358.70;2329.60;;;;;;5009011;28;20407;-67
2022/12/25 12:29:28;;;;;;;37.17;26.73;;;358.80;2329.60;;;;;;5008276;28;20123;-75
2022/12/25 12:31:58;;;;;;;24.55;17.45;;;358.80;2329.60;;;;;;5008673;28;20056;-70
2022/12/25 12:34:27;;;;;;;37.83;23.90;;;358.80;2329.60;;;;;;5008247;28;20037;-63
2022/12/25 12:37:06;;;;;;;35.72;26.30;;;358.80;2329.60;;;;;;5008530;28;20507;-64
2022/12/25 12:39:38;;;;;;;49.38;28.83;;;358.80;2329.60;;;;;;5008582;28;20030;-70
2022/12/25 12:42:18;;;;;;;37.97;21.65;;;358.70;2329.60;;;;;;5008026;28;20408;-66
2022/12/25 12:44:46;;;;;;;29.90;22.65;;;358.80;2329.60;;;;;;5006745;28;20046;-62
2022/12/25 12:47:41;;;;;;;37.33;24.55;;;358.80;2329.60;;;;;;5005822;28;20029;-65
2022/12/25 12:50:26;;;;;;;25.02;18.27;;;358.90;2329.60;;;;;;5006391;28;20026;-69
2022/12/25 12:52:53;;;;;;;40.63;26.48;;;358.80;2329.60;;;;;;5006397;28;20084;-63
2022/12/25 12:55:28;;;;;;;61.83;40.60;;;358.80;2329.60;;;;;;5054313;28;20123;-68
2022/12/25 12:58:02;;;;;;;54.65;35.20;;;358.90;2329.60;;;;;;5087677;28;20474;-62
2022/12/25 13:00:43;;;;;;;20.30;14.02;;;358.90;2329.60;;;;;;5088791;28;20032;-65
2022/12/25 13:03:50;;;;;;;41.08;26.25;;;358.90;2329.60;;;;;;5088856;28;20022;-62
2022/12/25 13:06:52;;;;;;;45.15;31.45;;;359.00;2329.60;;;;;;5088335;28;20032;-66
2022/12/25 13:09:50;;;;;;;44.85;31.52;;;359.00;2329.60;;;;;;5006140;28;20128;-66
2022/12/25 13:12:16;;;;;;;71.57;45.05;;;358.90;2329.60;;;;;;5005668;28;20090;-69
2022/12/25 13:14:49;;;;;;;69.25;41.85;;;359.00;2329.60;;;;;;5006235;28;20109;-69
2022/12/25 13:17:20;;;;;;;62.85;40.03;;;358.90;2329.60;;;;;;5006410;28;20057;-64
2022/12/25 13:19:56;;;;;;;73.93;48.72;;;358.90;2329.60;;;;;;5006014;28;20034;-72
2022/12/25 13:22:34;;;;;;;72.80;47.60;;;359.10;2329.60;;;;;;5006229;28;20072;-63
2022/12/25 13:25:03;;;;;;;121.60;76.20;;;359.10;2329.60;;;;;;5005591;28;20080;-71
2022/12/25 13:27:31;;;;;;;76.65;54.90;;;359.10;2329.60;;;;;;5006095;28;20042;-63
2022/12/25 13:29:58;;;;;;;66.95;45.40;;;359.20;2329.60;;;;;;5006963;28;20041;-63
2022/12/25 13:32:32;;;;;;;65.70;46.13;;;359.10;2329.60;;;;;;5008354;28;20030;-65
2022/12/25 13:34:59;;;;;;;80.45;58.47;;;359.10;2329.60;;;;;;5008265;28;20018;-63
2022/12/25 13:37:29;;;;;;;71.60;53.20;;;359.10;2329.60;;;;;;5007935;28;20034;-65
2022/12/25 13:39:56;;;;;;;54.92;37.85;;;359.00;2329.60;;;;;;5007930;28;20026;-62
2022/12/25 13:42:28;;;;;;;60.13;43.67;;;359.10;2329.60;;;;;;5017921;28;20543;-70
2022/12/25 13:45:00;;;;;;;54.95;36.28;;;359.00;2329.60;;;;;;5089782;28;20447;-65
2022/12/25 13:47:33;;;;;;;48.50;33.88;;;359.00;2329.60;;;;;;5089678;28;20389;-63
2022/12/25 13:50:20;;;;;;;66.28;45.65;;;358.90;2329.60;;;;;;5090044;28;20055;-63
2022/12/25 13:52:46;;;;;;;74.95;48.85;;;358.90;2329.60;;;;;;5075492;28;20032;-64
2022/12/25 13:55:12;;;;;;;90.68;56.38;;;358.90;2329.60;;;;;;5089840;28;20024;-68
2022/12/25 13:57:42;;;;;;;69.47;45.50;;;358.90;2329.60;;;;;;5089834;28;20020;-63
2022/12/25 14:00:19;;;;;;;77.65;47.90;;;358.80;2329.60;;;;;;5092580;28;20081;-65